Buoy 48633

sailwx.info

Track history (hours):
 
Tides and Currents Weather Stations Pressure Air Temp Water Temp Dewpoint Dewpoint Depression Visibility Wind Speed Wind Dir Waves Ship Positions

Drifting buoy 48633

Last reported at 2018-Jun-22 17:05 UTC. Time now 2018-Jun-22 19:01 UTC.
Position N 70°49' W 154°00'.

Barometer 1015.6 mb
Water temperature 2.3 ° C

Date/timePositionNaut miles runAvg speedWind from/ knotsBaromVisibWave heightAir tempDewpointWater temp
2018-Jun-22 17:05N 70°49' W 154°00'0 0.0 1015.6 2.3
2018-Jun-22 17:00N 70°49' W 154°00'0 0.0 1015.6 -25.3 2.3
2018-Jun-22 16:05N 70°49' W 154°00'0 0.0 1015.4 2.0
2018-Jun-22 16:00N 70°49' W 154°00'0 0.0 1015.4 -25.4 2.0
2018-Jun-22 15:05N 70°49' W 154°00'0 0.0 1015.4 1.8
2018-Jun-22 15:00N 70°49' W 154°00'0 0.0 1015.4 -25.7 1.8
2018-Jun-22 14:05N 70°49' W 154°00'0 0.0 1015.3 1.7
2018-Jun-22 14:00N 70°49' W 154°00'0 0.0 1015.3 -26.4 1.7
2018-Jun-22 13:05N 70°49' W 154°00'0 0.0 1015.4 3.9
2018-Jun-22 13:04N 70°49' W 154°00'0 0.0 1015.2 2.9
2018-Jun-22 13:00N 70°49' W 154°00'0 0.0 1015.2 -26.1 1.9
2018-Jun-22 12:04N 70°49' W 154°00'0 0.0 1016.7 7.0
2018-Jun-22 12:00N 70°49' W 154°00'0 0.0 1015.1 -26.3 2.1
2018-Jun-21 15:08N 70°49' W 154°00'0 0.0 1019.2 1.5
2018-Jun-21 15:00N 70°49' W 154°00'0 0.0 1019.2 -24.5 1.5
2018-Jun-21 14:04N 70°49' W 154°00'0 0.0 1019.2 1.4
2018-Jun-21 14:00N 70°49' W 154°00'0 0.0 1019.2 -24.3 1.4
2018-Jun-21 13:04N 70°49' W 154°00'0 0.0 1019.2 1.6
2018-Jun-21 13:00N 70°49' W 154°00'0 0.0 1019.2 -24.1 1.6
2018-Jun-21 12:04N 70°49' W 154°00'0 0.0 1019.3 1.9
2018-Jun-21 12:00N 70°49' W 154°00'0 0.0 1019.3 -24.0 1.9
2018-Jun-21 11:05N 70°49' W 154°00'0 0.0 1019.0 4.9
2018-Jun-21 10:05N 70°49' W 154°00'0 0.0 1019.0 3.7
2018-Jun-20 19:00N 70°49' W 154°00'0 0.0 1018.1 -23.9 1.7
2018-Jun-20 18:00N 70°49' W 154°00'0 0.0 1017.8 -23.9 1.3
2018-Jun-20 17:00N 70°49' W 154°00'0 0.0 1017.8 -23.7 1.0
2018-Jun-20 16:00N 70°49' W 154°00'0 0.0 1017.7 -24.1 0.8
2018-Jun-20 15:00N 70°49' W 154°00'0 0.0 1017.3 -24.2 0.8
2018-Jun-20 14:00N 70°49' W 154°00'0 0.0 1017.3 -24.6 0.7
2018-Jun-20 13:05N 70°49' W 154°00'0 0.0 1017.5 0.8
2018-Jun-20 13:00N 70°49' W 154°00'0 0.0 1017.5 -24.8 0.8
2018-Jun-20 12:04N 70°49' W 154°00'0 0.0 1017.6 0.9
2018-Jun-20 12:00N 70°49' W 154°00'0 0.0 1017.6 -24.9 0.9
2018-Jun-20 11:04N 70°49' W 154°00'0 0.0 1017.5 1.1
2018-Jun-20 11:00N 70°49' W 154°00'0 0.0 1017.5 -24.7 1.1
2018-Jun-20 10:05N 70°49' W 154°00'0 0.0 1017.5 1.4
2018-Jun-20 10:00N 70°49' W 154°00'0 0.0 1017.5 -24.6 1.4
2018-Jun-20 09:05N 70°49' W 154°00'0 0.0 1017.2 2.4
2018-Jun-20 09:00N 70°49' W 154°00'0 0.0 1017.2 -24.0 1.8
2018-Jun-20 08:00N 70°49' W 154°00'0 0.0 1017.2 -23.5 2.4
2018-Jun-19 23:04N 70°49' W 154°00'0 0.0 1016.6 4.3
2018-Jun-19 23:00N 70°49' W 154°00'0 0.0 1016.6 -23.4 4.3
2018-Jun-19 22:08N 70°49' W 154°00'0 0.0 1016.3 3.9
2018-Jun-19 22:00N 70°49' W 154°00'0 0.0 1016.3 -23.6 3.9
2018-Jun-19 21:04N 70°49' W 154°00'0 0.0 1016.3 3.6
2018-Jun-19 21:00N 70°49' W 154°00'0 0.0 1016.3 -25.3 3.6
2018-Jun-19 20:06N 70°49' W 154°00'0 0.0 1016.5 2.8
2018-Jun-19 20:00N 70°49' W 154°00'0 0.0 1016.5 -25.1 2.8
2018-Jun-19 19:08N 70°49' W 154°00'0 0.0 1016.1 2.1
2018-Jun-19 19:00N 70°49' W 154°00'0 0.0 1016.1 -25.6 2.1
2018-Jun-19 18:04N 70°49' W 154°00'0 0.0 1015.6 1.2
2018-Jun-19 18:00N 70°49' W 154°00'0 0.0 1015.6 -25.8 1.2
2018-Jun-19 17:05N 70°49' W 154°00'0 0.0 1015.3 0.7
2018-Jun-19 17:00N 70°49' W 154°00'0 0.0 1015.3 -25.7 0.7
2018-Jun-19 16:04N 70°49' W 154°00'0 0.0 1014.7 0.5
2018-Jun-19 16:00N 70°49' W 154°00'0 0.0 1014.7 -25.2 0.5
2018-Jun-19 15:05N 70°49' W 154°00'0 0.0 1014.3 0.5
2018-Jun-19 15:00N 70°49' W 154°00'0 0.0 1014.3 -25.0 0.5
2018-Jun-19 14:05N 70°49' W 154°00'0 0.0 1014.1 0.5
2018-Jun-19 14:00N 70°49' W 154°00'0 0.0 1014.1 -24.8 0.5
2018-Jun-19 13:04N 70°49' W 154°00'0 0.0 1013.8 0.5
2018-Jun-19 13:00N 70°49' W 154°00'0 0.0 1013.8 -25.0 0.5
2018-Jun-19 12:05N 70°49' W 154°00'0 0.0 1013.5 0.6
2018-Jun-19 12:00N 70°49' W 154°00'0 0.0 1013.5 -24.7 0.6
2018-Jun-19 11:05N 70°49' W 154°00'0 0.0 1013.1 0.7
2018-Jun-19 11:00N 70°49' W 154°00'0 0.0 1013.1 -25.0 0.7
2018-Jun-19 10:05N 70°49' W 154°00'0 0.0 1012.8 1.0
2018-Jun-19 10:00N 70°49' W 154°00'0 0.0 1012.8 -25.0 1.0
2018-Jun-19 09:06N 70°49' W 154°00'0 0.0 1012.4 1.5
2018-Jun-19 09:00N 70°49' W 154°00'0 0.0 1012.4 -24.6 1.5
2018-Jun-19 07:04N 70°49' W 154°00'0 0.0 1010.0 1.3
2018-Jun-18 15:08N 70°49' W 154°00'0 0.0 1009.8 0.9
2018-Jun-18 15:00N 70°49' W 154°00'0 0.0 1009.8 -22.2 0.9
2018-Jun-18 14:04N 70°49' W 154°00'0 0.0 1009.8 0.8
2018-Jun-18 14:00N 70°49' W 154°00'0 0.0 1009.8 -22.6 0.8
2018-Jun-18 13:04N 70°49' W 154°00'0 0.0 1010.0 0.7
2018-Jun-18 13:00N 70°49' W 154°00'0 0.0 1010.0 -22.4 0.7
2018-Jun-18 12:04N 70°49' W 154°00'0 0.0 1010.3 2.4
2018-Jun-18 12:00N 70°49' W 154°00'0 0.0 1009.8 -22.2 1.0
2018-Jun-18 11:05N 70°49' W 154°00'0 0.0 1012.1 5.8
2018-Jun-18 11:00N 70°49' W 154°00'0 0.0 1010.2 -22.2 1.5
2018-Jun-17 20:07N 70°49' W 154°00'0 0.0 1013.8 3.0
2018-Jun-17 20:00N 70°49' W 154°00'0 0.0 1013.8 -27.3 3.0
2018-Jun-17 19:04N 70°49' W 154°00'0 0.0 1013.0 2.2
2018-Jun-17 19:00N 70°49' W 154°00'0 0.0 1013.0 -26.2 2.2
2018-Jun-17 18:04N 70°49' W 154°00'0 0.0 1013.3 1.4
2018-Jun-17 18:00N 70°49' W 154°00'0 0.0 1013.3 -25.4 1.4
2018-Jun-17 17:05N 70°49' W 154°00'0 0.0 1013.2 1.1
2018-Jun-17 17:00N 70°49' W 154°00'0 0.0 1013.2 -24.9 1.1
2018-Jun-17 16:09N 70°49' W 154°00'0 0.0 1013.1 0.7
2018-Jun-17 16:00N 70°49' W 154°00'0 0.0 1013.1 -25.0 0.7
2018-Jun-17 15:05N 70°49' W 154°00'0 0.0 1013.0 0.4
2018-Jun-17 15:00N 70°49' W 154°00'0 0.0 1013.0 -25.1 0.4
2018-Jun-17 14:04N 70°49' W 154°00'0 0.0 1012.9 0.3
2018-Jun-17 14:00N 70°49' W 154°00'0 0.0 1012.9 -25.3 0.3
2018-Jun-17 13:05N 70°49' W 154°00'0 0.0 1012.7 0.4
2018-Jun-17 13:00N 70°49' W 154°00'0 0.0 1012.7 -25.8 0.4
2018-Jun-17 12:05N 70°49' W 154°00'0 0.0 1012.6 0.4
2018-Jun-17 12:00N 70°49' W 154°00'0 0.0 1012.6 -27.5 0.4
2018-Jun-17 11:05N 70°49' W 154°00'0 0.0 1012.5 0.6
2018-Jun-17 11:00N 70°49' W 154°00'0 0.0 1012.5 -26.8 0.6
2018-Jun-17 10:04N 70°49' W 154°00'0 0.0 1012.5 0.9
2018-Jun-17 10:00N 70°49' W 154°00'0 0.0 1012.5 -25.9 0.9
2018-Jun-17 09:07N 70°49' W 154°00'0 0.0 1012.4 1.3
2018-Jun-17 09:00N 70°49' W 154°00'0 0.0 1012.4 -25.0 1.3
2018-Jun-17 08:05N 70°49' W 154°00'0 0.0 1013.6 3.4
2018-Jun-17 08:00N 70°49' W 154°00'0 0.0 1012.3 -22.6 1.9
2018-Jun-17 07:07N 70°49' W 154°00'0 0.0 1011.9 2.1
2018-Jun-17 07:05N 70°49' W 154°00'0 0.0 1008.7 2.5
2018-Jun-17 07:00N 70°49' W 154°00'0 0.0 1012.4 -21.8 2.5
2018-Jun-16 16:09N 70°49' W 154°00'0 0.0 1007.4 0.3
2018-Jun-16 14:08N 70°49' W 154°00'0 0.0 1007.7 0.2
2018-Jun-16 14:06N 70°49' W 154°00'0 0.0 1008.0 0.1
2018-Jun-15 18:08N 70°49' W 154°00'0 0.0 1007.9 0.1
2018-Jun-15 18:00N 70°49' W 154°00'0 0.0 1007.9 -21.5 0.1
2018-Jun-15 17:05N 70°49' W 154°00'0 0.0 1007.9 0.1
2018-Jun-15 17:00N 70°49' W 154°00'0 0.0 1007.9 -22.4 0.1
2018-Jun-15 16:05N 70°49' W 154°00'0 0.0 1008.1 0.1
2018-Jun-15 16:00N 70°49' W 154°00'0 0.0 1008.1 -23.0 0.1
2018-Jun-15 15:08N 70°49' W 154°00'0 0.0 1008.2 0.1
2018-Jun-15 15:00N 70°49' W 154°00'0 0.0 1008.2 -23.0 0.1
2018-Jun-15 14:04N 70°49' W 154°00'0 0.0 1008.4 0.1
2018-Jun-15 14:00N 70°49' W 154°00'0 0.0 1008.4 -23.1 0.1
2018-Jun-15 13:05N 70°49' W 154°00'0 0.0 1008.4 0.1
2018-Jun-15 13:00N 70°49' W 154°00'0 0.0 1008.4 -23.3 0.1
2018-Jun-15 12:05N 70°49' W 154°00'0 0.0 1008.5 0.1
2018-Jun-15 12:00N 70°49' W 154°00'0 0.0 1008.5 -23.9 0.1
2018-Jun-15 11:07N 70°49' W 154°00'0 0.0 1008.7 0.1
2018-Jun-15 11:00N 70°49' W 154°00'0 0.0 1008.7 -23.5 0.1
2018-Jun-15 10:07N 70°49' W 154°00'0 0.0 1008.7 0.2
2018-Jun-15 10:00N 70°49' W 154°00'0 0.0 1008.7 -23.2 0.2
2018-Jun-15 09:04N 70°49' W 154°00'0 0.0 1008.8 0.2
2018-Jun-15 09:00N 70°49' W 154°00'0 0.0 1008.8 -23.3 0.2
2018-Jun-15 08:07N 70°49' W 154°00'0 0.0 1006.2 0.2
2018-Jun-15 08:00N 70°49' W 154°00'0 0.0 1008.7 -23.4 0.2
2018-Jun-15 07:05N 70°49' W 154°00'0 0.0 1006.2 0.2
2018-Jun-15 07:00N 70°49' W 154°00'0 0.0 1008.7 -23.0 0.2
2018-Jun-14 18:05N 70°49' W 154°00'0 0.0 1011.2 0.3
2018-Jun-14 17:08N 70°49' W 154°00'0 0.0 1010.9 0.1
2018-Jun-14 15:05N 70°49' W 154°00'0 0.0 1009.6 0.2
2018-Jun-14 14:05N 70°49' W 154°00'0 0.0 1013.2 0.1
2018-Jun-14 14:04N 70°49' W 154°00'0 0.0 1012.4 0.2
2018-Jun-14 13:06N 70°49' W 154°00'   1013.6 0.1
Track history (hours):
 
Tides and Currents Weather Stations Pressure Air Temp Water Temp Dewpoint Dewpoint Depression Visibility Wind Speed Wind Dir Waves Ship Positions

Drifting buoy 48633

Last reported at 2018-Jun-22 17:05 UTC. Time now 2018-Jun-22 19:01 UTC.
Position N 70°49' W 154°00'.

Barometer 1015.6 mb
Water temperature 2.3 ° C

Date/timePositionNaut miles runAvg speedWind from/ knotsBaromVisibWave heightAir tempDewpointWater temp
2018-Jun-22 17:05N 70°49' W 154°00'0 0.0 1015.6 2.3
2018-Jun-22 17:00N 70°49' W 154°00'0 0.0 1015.6 -25.3 2.3
2018-Jun-22 16:05N 70°49' W 154°00'0 0.0 1015.4 2.0
2018-Jun-22 16:00N 70°49' W 154°00'0 0.0 1015.4 -25.4 2.0
2018-Jun-22 15:05N 70°49' W 154°00'0 0.0 1015.4 1.8
2018-Jun-22 15:00N 70°49' W 154°00'0 0.0 1015.4 -25.7 1.8
2018-Jun-22 14:05N 70°49' W 154°00'0 0.0 1015.3 1.7
2018-Jun-22 14:00N 70°49' W 154°00'0 0.0 1015.3 -26.4 1.7
2018-Jun-22 13:05N 70°49' W 154°00'0 0.0 1015.4 3.9
2018-Jun-22 13:04N 70°49' W 154°00'0 0.0 1015.2 2.9
2018-Jun-22 13:00N 70°49' W 154°00'0 0.0 1015.2 -26.1 1.9
2018-Jun-22 12:04N 70°49' W 154°00'0 0.0 1016.7 7.0
2018-Jun-22 12:00N 70°49' W 154°00'0 0.0 1015.1 -26.3 2.1
2018-Jun-21 15:08N 70°49' W 154°00'0 0.0 1019.2 1.5
2018-Jun-21 15:00N 70°49' W 154°00'0 0.0 1019.2 -24.5 1.5
2018-Jun-21 14:04N 70°49' W 154°00'0 0.0 1019.2 1.4
2018-Jun-21 14:00N 70°49' W 154°00'0 0.0 1019.2 -24.3 1.4
2018-Jun-21 13:04N 70°49' W 154°00'0 0.0 1019.2 1.6
2018-Jun-21 13:00N 70°49' W 154°00'0 0.0 1019.2 -24.1 1.6
2018-Jun-21 12:04N 70°49' W 154°00'0 0.0 1019.3 1.9
2018-Jun-21 12:00N 70°49' W 154°00'0 0.0 1019.3 -24.0 1.9
2018-Jun-21 11:05N 70°49' W 154°00'0 0.0 1019.0 4.9
2018-Jun-21 10:05N 70°49' W 154°00'0 0.0 1019.0 3.7
2018-Jun-20 19:00N 70°49' W 154°00'0 0.0 1018.1 -23.9 1.7
2018-Jun-20 18:00N 70°49' W 154°00'0 0.0 1017.8 -23.9 1.3
2018-Jun-20 17:00N 70°49' W 154°00'0 0.0 1017.8 -23.7 1.0
2018-Jun-20 16:00N 70°49' W 154°00'0 0.0 1017.7 -24.1 0.8
2018-Jun-20 15:00N 70°49' W 154°00'0 0.0 1017.3 -24.2 0.8
2018-Jun-20 14:00N 70°49' W 154°00'0 0.0 1017.3 -24.6 0.7
2018-Jun-20 13:05N 70°49' W 154°00'0 0.0 1017.5 0.8
2018-Jun-20 13:00N 70°49' W 154°00'0 0.0 1017.5 -24.8 0.8
2018-Jun-20 12:04N 70°49' W 154°00'0 0.0 1017.6 0.9
2018-Jun-20 12:00N 70°49' W 154°00'0 0.0 1017.6 -24.9 0.9
2018-Jun-20 11:04N 70°49' W 154°00'0 0.0 1017.5 1.1
2018-Jun-20 11:00N 70°49' W 154°00'0 0.0 1017.5 -24.7 1.1
2018-Jun-20 10:05N 70°49' W 154°00'0 0.0 1017.5 1.4
2018-Jun-20 10:00N 70°49' W 154°00'0 0.0 1017.5 -24.6 1.4
2018-Jun-20 09:05N 70°49' W 154°00'0 0.0 1017.2 2.4
2018-Jun-20 09:00N 70°49' W 154°00'0 0.0 1017.2 -24.0 1.8
2018-Jun-20 08:00N 70°49' W 154°00'0 0.0 1017.2 -23.5 2.4
2018-Jun-19 23:04N 70°49' W 154°00'0 0.0 1016.6 4.3
2018-Jun-19 23:00N 70°49' W 154°00'0 0.0 1016.6 -23.4 4.3
2018-Jun-19 22:08N 70°49' W 154°00'0 0.0 1016.3 3.9
2018-Jun-19 22:00N 70°49' W 154°00'0 0.0 1016.3 -23.6 3.9
2018-Jun-19 21:04N 70°49' W 154°00'0 0.0 1016.3 3.6
2018-Jun-19 21:00N 70°49' W 154°00'0 0.0 1016.3 -25.3 3.6
2018-Jun-19 20:06N 70°49' W 154°00'0 0.0 1016.5 2.8
2018-Jun-19 20:00N 70°49' W 154°00'0 0.0 1016.5 -25.1 2.8
2018-Jun-19 19:08N 70°49' W 154°00'0 0.0 1016.1 2.1
2018-Jun-19 19:00N 70°49' W 154°00'0 0.0 1016.1 -25.6 2.1
2018-Jun-19 18:04N 70°49' W 154°00'0 0.0 1015.6 1.2
2018-Jun-19 18:00N 70°49' W 154°00'0 0.0 1015.6 -25.8 1.2
2018-Jun-19 17:05N 70°49' W 154°00'0 0.0 1015.3 0.7
2018-Jun-19 17:00N 70°49' W 154°00'0 0.0 1015.3 -25.7 0.7
2018-Jun-19 16:04N 70°49' W 154°00'0 0.0 1014.7 0.5
2018-Jun-19 16:00N 70°49' W 154°00'0 0.0 1014.7 -25.2 0.5
2018-Jun-19 15:05N 70°49' W 154°00'0 0.0 1014.3 0.5
2018-Jun-19 15:00N 70°49' W 154°00'0 0.0 1014.3 -25.0 0.5
2018-Jun-19 14:05N 70°49' W 154°00'0 0.0 1014.1 0.5
2018-Jun-19 14:00N 70°49' W 154°00'0 0.0 1014.1 -24.8 0.5
2018-Jun-19 13:04N 70°49' W 154°00'0 0.0 1013.8 0.5
2018-Jun-19 13:00N 70°49' W 154°00'0 0.0 1013.8 -25.0 0.5
2018-Jun-19 12:05N 70°49' W 154°00'0 0.0 1013.5 0.6
2018-Jun-19 12:00N 70°49' W 154°00'0 0.0 1013.5 -24.7 0.6
2018-Jun-19 11:05N 70°49' W 154°00'0 0.0 1013.1 0.7
2018-Jun-19 11:00N 70°49' W 154°00'0 0.0 1013.1 -25.0 0.7
2018-Jun-19 10:05N 70°49' W 154°00'0 0.0 1012.8 1.0
2018-Jun-19 10:00N 70°49' W 154°00'0 0.0 1012.8 -25.0 1.0
2018-Jun-19 09:06N 70°49' W 154°00'0 0.0 1012.4 1.5
2018-Jun-19 09:00N 70°49' W 154°00'0 0.0 1012.4 -24.6 1.5
2018-Jun-19 07:04N 70°49' W 154°00'0 0.0 1010.0 1.3
2018-Jun-18 15:08N 70°49' W 154°00'0 0.0 1009.8 0.9
2018-Jun-18 15:00N 70°49' W 154°00'0 0.0 1009.8 -22.2 0.9
2018-Jun-18 14:04N 70°49' W 154°00'0 0.0 1009.8 0.8
2018-Jun-18 14:00N 70°49' W 154°00'0 0.0 1009.8 -22.6 0.8
2018-Jun-18 13:04N 70°49' W 154°00'0 0.0 1010.0 0.7
2018-Jun-18 13:00N 70°49' W 154°00'0 0.0 1010.0 -22.4 0.7
2018-Jun-18 12:04N 70°49' W 154°00'0 0.0 1010.3 2.4
2018-Jun-18 12:00N 70°49' W 154°00'0 0.0 1009.8 -22.2 1.0
2018-Jun-18 11:05N 70°49' W 154°00'0 0.0 1012.1 5.8
2018-Jun-18 11:00N 70°49' W 154°00'0 0.0 1010.2 -22.2 1.5
2018-Jun-17 20:07N 70°49' W 154°00'0 0.0 1013.8 3.0
2018-Jun-17 20:00N 70°49' W 154°00'0 0.0 1013.8 -27.3 3.0
2018-Jun-17 19:04N 70°49' W 154°00'0 0.0 1013.0 2.2
2018-Jun-17 19:00N 70°49' W 154°00'0 0.0 1013.0 -26.2 2.2
2018-Jun-17 18:04N 70°49' W 154°00'0 0.0 1013.3 1.4
2018-Jun-17 18:00N 70°49' W 154°00'0 0.0 1013.3 -25.4 1.4
2018-Jun-17 17:05N 70°49' W 154°00'0 0.0 1013.2 1.1
2018-Jun-17 17:00N 70°49' W 154°00'0 0.0 1013.2 -24.9 1.1
2018-Jun-17 16:09N 70°49' W 154°00'0 0.0 1013.1 0.7
2018-Jun-17 16:00N 70°49' W 154°00'0 0.0 1013.1 -25.0 0.7
2018-Jun-17 15:05N 70°49' W 154°00'0 0.0 1013.0 0.4
2018-Jun-17 15:00N 70°49' W 154°00'0 0.0 1013.0 -25.1 0.4
2018-Jun-17 14:04N 70°49' W 154°00'0 0.0 1012.9 0.3
2018-Jun-17 14:00N 70°49' W 154°00'0 0.0 1012.9 -25.3 0.3
2018-Jun-17 13:05N 70°49' W 154°00'0 0.0 1012.7 0.4
2018-Jun-17 13:00N 70°49' W 154°00'0 0.0 1012.7 -25.8 0.4
2018-Jun-17 12:05N 70°49' W 154°00'0 0.0 1012.6 0.4
2018-Jun-17 12:00N 70°49' W 154°00'0 0.0 1012.6 -27.5 0.4
2018-Jun-17 11:05N 70°49' W 154°00'0 0.0 1012.5 0.6
2018-Jun-17 11:00N 70°49' W 154°00'0 0.0 1012.5 -26.8 0.6
2018-Jun-17 10:04N 70°49' W 154°00'0 0.0 1012.5 0.9
2018-Jun-17 10:00N 70°49' W 154°00'0 0.0 1012.5 -25.9 0.9
2018-Jun-17 09:07N 70°49' W 154°00'0 0.0 1012.4 1.3
2018-Jun-17 09:00N 70°49' W 154°00'0 0.0 1012.4 -25.0 1.3
2018-Jun-17 08:05N 70°49' W 154°00'0 0.0 1013.6 3.4
2018-Jun-17 08:00N 70°49' W 154°00'0 0.0 1012.3 -22.6 1.9
2018-Jun-17 07:07N 70°49' W 154°00'0 0.0 1011.9 2.1
2018-Jun-17 07:05N 70°49' W 154°00'0 0.0 1008.7 2.5
2018-Jun-17 07:00N 70°49' W 154°00'0 0.0 1012.4 -21.8 2.5
2018-Jun-16 16:09N 70°49' W 154°00'0 0.0 1007.4 0.3
2018-Jun-16 14:08N 70°49' W 154°00'0 0.0 1007.7 0.2
2018-Jun-16 14:06N 70°49' W 154°00'0 0.0 1008.0 0.1
2018-Jun-15 18:08N 70°49' W 154°00'0 0.0 1007.9 0.1
2018-Jun-15 18:00N 70°49' W 154°00'0 0.0 1007.9 -21.5 0.1
2018-Jun-15 17:05N 70°49' W 154°00'0 0.0 1007.9 0.1
2018-Jun-15 17:00N 70°49' W 154°00'0 0.0 1007.9 -22.4 0.1
2018-Jun-15 16:05N 70°49' W 154°00'0 0.0 1008.1 0.1
2018-Jun-15 16:00N 70°49' W 154°00'0 0.0 1008.1 -23.0 0.1
2018-Jun-15 15:08N 70°49' W 154°00'0 0.0 1008.2 0.1
2018-Jun-15 15:00N 70°49' W 154°00'0 0.0 1008.2 -23.0 0.1
2018-Jun-15 14:04N 70°49' W 154°00'0 0.0 1008.4 0.1
2018-Jun-15 14:00N 70°49' W 154°00'0 0.0 1008.4 -23.1 0.1
2018-Jun-15 13:05N 70°49' W 154°00'0 0.0 1008.4 0.1
2018-Jun-15 13:00N 70°49' W 154°00'0 0.0 1008.4 -23.3 0.1
2018-Jun-15 12:05N 70°49' W 154°00'0 0.0 1008.5 0.1
2018-Jun-15 12:00N 70°49' W 154°00'0 0.0 1008.5 -23.9 0.1
2018-Jun-15 11:07N 70°49' W 154°00'0 0.0 1008.7 0.1
2018-Jun-15 11:00N 70°49' W 154°00'0 0.0 1008.7 -23.5 0.1
2018-Jun-15 10:07N 70°49' W 154°00'0 0.0 1008.7 0.2
2018-Jun-15 10:00N 70°49' W 154°00'0 0.0 1008.7 -23.2 0.2
2018-Jun-15 09:04N 70°49' W 154°00'0 0.0 1008.8 0.2
2018-Jun-15 09:00N 70°49' W 154°00'0 0.0 1008.8 -23.3 0.2
2018-Jun-15 08:07N 70°49' W 154°00'0 0.0 1006.2 0.2
2018-Jun-15 08:00N 70°49' W 154°00'0 0.0 1008.7 -23.4 0.2
2018-Jun-15 07:05N 70°49' W 154°00'0 0.0 1006.2 0.2
2018-Jun-15 07:00N 70°49' W 154°00'0 0.0 1008.7 -23.0 0.2
2018-Jun-14 18:05N 70°49' W 154°00'0 0.0 1011.2 0.3
2018-Jun-14 17:08N 70°49' W 154°00'0 0.0 1010.9 0.1
2018-Jun-14 15:05N 70°49' W 154°00'0 0.0 1009.6 0.2
2018-Jun-14 14:05N 70°49' W 154°00'0 0.0 1013.2 0.1
2018-Jun-14 14:04N 70°49' W 154°00'0 0.0 1012.4 0.2
2018-Jun-14 13:06N 70°49' W 154°00'   1013.6 0.1

Dump ship's entire track history